createdAt,value
2022-11-23T00:00:42.563Z,0.00
2022-11-23T00:01:42.544Z,0.00
2022-11-23T00:02:42.526Z,0.00
2022-11-23T00:03:42.494Z,0.00
2022-11-23T00:04:42.481Z,0.00
2022-11-23T00:05:42.470Z,0.00
2022-11-23T00:06:42.483Z,0.00
2022-11-23T00:07:42.493Z,0.00
2022-11-23T00:08:42.459Z,0.00
2022-11-23T00:09:42.425Z,0.00
2022-11-23T00:10:42.406Z,0.00
2022-11-23T00:11:42.435Z,0.00
2022-11-23T00:12:42.413Z,0.00
2022-11-23T00:13:42.409Z,0.00
2022-11-23T00:14:42.364Z,0.00
2022-11-23T00:15:42.344Z,0.00
2022-11-23T00:16:42.372Z,0.00
2022-11-23T00:17:42.323Z,0.00
2022-11-23T00:18:42.376Z,0.00
2022-11-23T00:19:42.347Z,0.00
2022-11-23T00:20:42.333Z,0.00
2022-11-23T00:21:42.284Z,0.00
2022-11-23T00:22:42.290Z,0.00
2022-11-23T00:23:42.267Z,0.00
2022-11-23T00:24:42.304Z,0.00
2022-11-23T00:25:42.307Z,0.00
2022-11-23T00:26:42.244Z,0.00
2022-11-23T00:27:42.248Z,0.00
2022-11-23T00:28:42.245Z,0.00
2022-11-23T00:29:42.208Z,0.00
2022-11-23T00:30:42.186Z,0.00
2022-11-23T00:31:42.200Z,0.00
2022-11-23T00:32:42.199Z,0.00
2022-11-23T00:33:42.151Z,0.00
2022-11-23T00:34:42.136Z,0.00
2022-11-23T00:35:42.126Z,0.00
2022-11-23T00:36:42.137Z,0.00
2022-11-23T00:37:42.140Z,0.00
2022-11-23T00:38:42.151Z,0.00
2022-11-23T00:39:42.078Z,0.00
2022-11-23T00:40:42.111Z,0.00
2022-11-23T00:41:42.066Z,0.00
2022-11-23T00:42:42.062Z,0.00
2022-11-23T00:43:42.061Z,0.00
2022-11-23T00:44:42.111Z,0.00
2022-11-23T00:45:42.008Z,0.00
2022-11-23T00:46:42.011Z,0.00
2022-11-23T00:47:42.002Z,0.00
2022-11-23T00:48:41.980Z,0.00
2022-11-23T00:49:41.996Z,0.00
2022-11-23T00:50:41.992Z,0.00
2022-11-23T00:51:41.959Z,0.00
2022-11-23T00:52:42.060Z,0.00
2022-11-23T00:53:41.931Z,0.00
2022-11-23T00:54:41.913Z,0.00
2022-11-23T00:55:41.903Z,0.00
2022-11-23T00:56:41.890Z,0.00
2022-11-23T00:57:41.912Z,0.00
2022-11-23T00:58:41.912Z,0.00
2022-11-23T00:59:41.860Z,0.00
2022-11-23T01:00:41.903Z,0.00
2022-11-23T01:01:41.883Z,0.00
2022-11-23T01:02:41.853Z,0.00
2022-11-23T01:03:41.861Z,0.00
2022-11-23T01:04:41.845Z,0.00
2022-11-23T01:05:41.804Z,0.00
2022-11-23T01:06:41.803Z,0.00
2022-11-23T01:07:41.817Z,0.00
2022-11-23T01:08:41.766Z,0.00
2022-11-23T01:09:41.773Z,0.00
2022-11-23T01:10:41.761Z,0.00
2022-11-23T01:11:41.737Z,0.00
2022-11-23T01:12:41.769Z,0.00
2022-11-23T01:13:41.732Z,0.00
2022-11-23T01:14:41.726Z,0.00
2022-11-23T01:15:41.687Z,0.00
2022-11-23T01:16:41.679Z,0.00
2022-11-23T01:17:41.653Z,0.00
2022-11-23T01:18:41.698Z,0.00
2022-11-23T01:19:41.704Z,0.00
2022-11-23T01:20:41.622Z,0.00
2022-11-23T01:21:41.638Z,0.00
2022-11-23T01:22:41.624Z,0.00
2022-11-23T01:23:41.624Z,0.00
2022-11-23T01:24:41.598Z,0.00
2022-11-23T01:25:41.597Z,0.00
2022-11-23T01:26:41.618Z,0.00
2022-11-23T01:27:41.558Z,0.00
2022-11-23T01:28:41.538Z,0.00
2022-11-23T01:29:41.529Z,0.00
2022-11-23T01:30:41.546Z,0.00
2022-11-23T01:31:46.126Z,0.00
2022-11-23T01:32:42.501Z,0.00
2022-11-23T01:33:41.509Z,0.00
2022-11-23T01:34:41.480Z,0.00
2022-11-23T01:35:41.477Z,0.00
2022-11-23T01:36:41.491Z,0.00
2022-11-23T01:37:41.461Z,0.00
2022-11-23T01:38:41.456Z,0.00
2022-11-23T01:39:41.409Z,0.00
2022-11-23T01:40:41.398Z,0.00
2022-11-23T01:41:41.385Z,0.00
2022-11-23T01:42:41.409Z,0.00
2022-11-23T01:43:41.381Z,0.00
2022-11-23T01:44:41.388Z,0.00
2022-11-23T01:45:41.394Z,0.00
2022-11-23T01:46:41.329Z,0.00
2022-11-23T01:47:41.332Z,0.00
2022-11-23T01:48:41.382Z,0.00
2022-11-23T01:49:41.315Z,0.00
2022-11-23T01:50:41.291Z,0.00
2022-11-23T01:51:41.269Z,0.00
2022-11-23T01:52:41.270Z,0.00
2022-11-23T01:53:41.283Z,0.00
2022-11-23T01:54:41.300Z,0.00
2022-11-23T01:55:41.249Z,0.00
2022-11-23T01:56:41.223Z,0.00
2022-11-23T01:57:41.200Z,0.00
2022-11-23T01:58:41.191Z,0.00
2022-11-23T01:59:41.245Z,0.00
2022-11-23T02:00:41.236Z,0.00
2022-11-23T02:01:41.161Z,0.00
2022-11-23T02:02:41.191Z,0.00
2022-11-23T02:03:41.155Z,0.00
2022-11-23T02:04:41.177Z,0.00
2022-11-23T02:05:41.165Z,0.00
2022-11-23T02:06:41.102Z,0.00
2022-11-23T02:07:41.190Z,0.00
2022-11-23T02:08:41.127Z,0.00
2022-11-23T02:09:41.120Z,0.00
2022-11-23T02:10:41.121Z,0.00
2022-11-23T02:11:41.084Z,0.00
2022-11-23T02:12:41.069Z,0.00
2022-11-23T02:13:41.048Z,0.00
2022-11-23T02:14:41.111Z,0.00
2022-11-23T02:15:41.018Z,0.00
2022-11-23T02:16:41.024Z,0.00
2022-11-23T02:17:40.964Z,0.00
2022-11-23T02:18:40.955Z,0.00
2022-11-23T02:19:40.965Z,0.00
2022-11-23T02:20:40.965Z,0.00
2022-11-23T02:21:40.945Z,0.00
2022-11-23T02:22:40.953Z,0.00
2022-11-23T02:23:40.908Z,0.00
2022-11-23T02:24:40.905Z,0.00
2022-11-23T02:25:40.886Z,0.00
2022-11-23T02:26:40.959Z,0.00
2022-11-23T02:27:46.623Z,0.00
2022-11-23T02:28:41.836Z,0.00
2022-11-23T02:29:40.870Z,0.00
2022-11-23T02:30:40.827Z,0.00
2022-11-23T02:31:40.817Z,0.00
2022-11-23T02:32:40.830Z,0.00
2022-11-23T02:33:40.790Z,0.00
2022-11-23T02:34:40.809Z,0.00
2022-11-23T02:35:40.829Z,0.00
2022-11-23T02:36:40.787Z,0.00
2022-11-23T02:37:40.764Z,0.00
2022-11-23T02:38:40.728Z,0.00
2022-11-23T02:39:40.738Z,0.00
2022-11-23T02:40:40.698Z,0.00
2022-11-23T02:41:40.729Z,0.00
2022-11-23T02:42:40.687Z,0.00
2022-11-23T02:43:40.669Z,0.00
2022-11-23T02:44:40.700Z,0.00
2022-11-23T02:45:40.663Z,0.00
2022-11-23T02:46:40.715Z,0.00
2022-11-23T02:47:40.630Z,0.00
2022-11-23T02:48:40.631Z,0.00
2022-11-23T02:49:40.602Z,0.00
2022-11-23T02:50:40.633Z,0.00
2022-11-23T02:51:40.594Z,0.00
2022-11-23T02:52:40.610Z,0.00
2022-11-23T02:53:40.571Z,0.00
2022-11-23T02:54:40.532Z,0.00
2022-11-23T02:55:40.544Z,0.00
2022-11-23T02:56:40.525Z,0.00
2022-11-23T02:57:40.548Z,0.00
2022-11-23T02:58:40.503Z,0.00
2022-11-23T02:59:40.485Z,0.00
2022-11-23T03:00:40.575Z,0.00
2022-11-23T03:01:40.464Z,0.00
2022-11-23T03:02:40.435Z,0.00
2022-11-23T03:03:40.448Z,0.00
2022-11-23T03:04:40.424Z,0.00
2022-11-23T03:05:40.405Z,0.00
2022-11-23T03:06:40.414Z,0.00
2022-11-23T03:07:40.464Z,0.00
2022-11-23T03:08:40.393Z,0.00
2022-11-23T03:09:40.370Z,0.00
2022-11-23T03:10:40.358Z,0.00
2022-11-23T03:11:40.360Z,0.00
2022-11-23T03:12:40.380Z,0.00
2022-11-23T03:13:40.327Z,0.00
2022-11-23T03:14:40.321Z,0.00
2022-11-23T03:15:40.309Z,0.00
2022-11-23T03:16:40.291Z,0.00
2022-11-23T03:17:40.299Z,0.00
2022-11-23T03:18:40.297Z,0.00
2022-11-23T03:19:40.260Z,0.00
2022-11-23T03:20:40.240Z,0.00
2022-11-23T03:21:40.219Z,0.00
2022-11-23T03:22:40.237Z,0.00
2022-11-23T03:23:40.210Z,0.00
2022-11-23T03:24:40.227Z,0.00
2022-11-23T03:25:40.202Z,0.00
2022-11-23T03:26:40.181Z,0.00
2022-11-23T03:27:40.138Z,0.00
2022-11-23T03:28:40.160Z,0.00
2022-11-23T03:29:40.152Z,0.00
2022-11-23T03:30:40.169Z,0.00
2022-11-23T03:31:40.144Z,0.00
2022-11-23T03:32:40.088Z,0.00
2022-11-23T03:33:40.125Z,0.00
2022-11-23T03:34:40.069Z,0.00
2022-11-23T03:35:40.071Z,0.00
2022-11-23T03:36:40.068Z,0.00
2022-11-23T03:37:40.034Z,0.00
2022-11-23T03:38:40.068Z,0.00
2022-11-23T03:39:45.795Z,0.00
2022-11-23T03:40:41.000Z,0.00
2022-11-23T03:41:40.021Z,0.00
2022-11-23T03:42:40.004Z,0.00
2022-11-23T03:43:39.977Z,0.00
2022-11-23T03:44:39.962Z,0.00
2022-11-23T03:45:39.931Z,0.00
2022-11-23T03:46:39.936Z,0.00
2022-11-23T03:47:39.995Z,0.00
2022-11-23T03:48:39.985Z,0.00
2022-11-23T03:49:39.892Z,0.00
2022-11-23T03:50:39.882Z,0.00
2022-11-23T03:51:39.865Z,0.00
2022-11-23T03:52:39.874Z,0.00
2022-11-23T03:53:39.895Z,0.00
2022-11-23T03:54:39.832Z,0.00
2022-11-23T03:55:39.825Z,0.00
2022-11-23T03:56:39.803Z,0.00
2022-11-23T03:57:39.837Z,0.00
2022-11-23T03:58:39.835Z,0.00
2022-11-23T03:59:39.787Z,0.00
2022-11-23T04:00:39.796Z,0.00
2022-11-23T04:01:39.797Z,0.00
2022-11-23T04:02:39.743Z,0.00
2022-11-23T04:03:39.745Z,0.00
2022-11-23T04:04:39.704Z,0.00
2022-11-23T04:05:39.719Z,0.00
2022-11-23T04:06:39.697Z,0.00
2022-11-23T04:07:39.807Z,0.00
2022-11-23T04:08:39.700Z,0.00
2022-11-23T04:09:39.666Z,0.00
2022-11-23T04:10:39.676Z,0.00
2022-11-23T04:11:39.650Z,0.00
2022-11-23T04:12:39.656Z,0.00
2022-11-23T04:13:39.634Z,0.00
2022-11-23T04:14:39.597Z,0.00
2022-11-23T04:15:39.618Z,0.00
2022-11-23T04:16:39.620Z,0.00
2022-11-23T04:17:39.578Z,0.00
2022-11-23T04:18:39.591Z,0.00
2022-11-23T04:19:39.580Z,0.00
2022-11-23T04:20:39.572Z,0.00
2022-11-23T04:21:39.539Z,0.00
2022-11-23T04:22:39.512Z,0.00
2022-11-23T04:23:39.496Z,0.00
2022-11-23T04:24:39.542Z,0.00
2022-11-23T04:25:39.482Z,0.00
2022-11-23T04:26:39.472Z,0.00
2022-11-23T04:27:39.452Z,0.00
2022-11-23T04:28:39.419Z,0.00
2022-11-23T04:29:39.492Z,0.00
2022-11-23T04:30:39.424Z,0.00
2022-11-23T04:31:39.455Z,0.00
2022-11-23T04:32:39.379Z,0.00
2022-11-23T04:33:39.380Z,0.00
2022-11-23T04:34:39.382Z,0.00
2022-11-23T04:35:39.381Z,0.00
2022-11-23T04:36:39.358Z,0.00
2022-11-23T04:37:39.316Z,0.00
2022-11-23T04:38:39.312Z,0.00
2022-11-23T04:39:39.301Z,0.00
2022-11-23T04:40:39.335Z,0.00
2022-11-23T04:41:39.306Z,0.00
2022-11-23T04:42:39.264Z,0.00
2022-11-23T04:43:39.264Z,0.00
2022-11-23T04:44:39.243Z,0.00
2022-11-23T04:45:39.255Z,0.00
2022-11-23T04:46:39.262Z,0.00
2022-11-23T04:47:39.213Z,0.00
2022-11-23T04:48:39.217Z,0.00
2022-11-23T04:49:39.194Z,0.00
2022-11-23T04:50:40.732Z,0.00
2022-11-23T04:51:39.194Z,0.00
2022-11-23T04:52:39.154Z,0.00
2022-11-23T04:53:39.125Z,0.00
2022-11-23T04:54:39.194Z,0.00
2022-11-23T04:55:39.115Z,0.00
2022-11-23T04:56:39.104Z,0.00
2022-11-23T04:57:39.098Z,0.00
2022-11-23T04:58:39.088Z,0.00
2022-11-23T04:59:39.087Z,0.00
2022-11-23T05:00:39.109Z,0.00
2022-11-23T05:01:39.125Z,0.00
2022-11-23T05:02:39.039Z,0.00
2022-11-23T05:03:39.036Z,0.00
2022-11-23T05:04:39.057Z,0.00
2022-11-23T05:05:39.021Z,0.00
2022-11-23T05:06:39.006Z,0.00
2022-11-23T05:07:39.035Z,0.00
2022-11-23T05:08:38.978Z,0.00
2022-11-23T05:09:38.938Z,0.00
2022-11-23T05:10:38.971Z,0.00
2022-11-23T05:11:38.939Z,0.00
2022-11-23T05:12:38.917Z,0.00
2022-11-23T05:13:38.919Z,0.00
2022-11-23T05:14:38.900Z,0.00
2022-11-23T05:15:38.927Z,0.00
2022-11-23T05:16:38.888Z,0.00
2022-11-23T05:17:38.868Z,0.00
2022-11-23T05:18:38.842Z,0.00
2022-11-23T05:19:38.852Z,0.00
2022-11-23T05:20:38.807Z,0.00
2022-11-23T05:21:38.869Z,0.00
2022-11-23T05:22:38.811Z,0.00
2022-11-23T05:23:38.796Z,0.00
2022-11-23T05:24:38.794Z,0.00
2022-11-23T05:25:38.795Z,0.00
2022-11-23T05:26:38.772Z,0.00
2022-11-23T05:27:38.773Z,0.00
2022-11-23T05:28:40.663Z,0.00
2022-11-23T05:29:38.721Z,0.00
2022-11-23T05:30:38.726Z,0.00
2022-11-23T05:31:38.704Z,0.00
2022-11-23T05:32:38.810Z,0.00
2022-11-23T05:33:38.685Z,0.00
2022-11-23T05:34:38.670Z,0.00
2022-11-23T05:35:38.681Z,0.00
2022-11-23T05:36:42.272Z,0.00
2022-11-23T05:37:38.637Z,0.00
2022-11-23T05:38:38.643Z,0.00
2022-11-23T05:39:38.603Z,0.00
2022-11-23T05:40:38.581Z,0.00
2022-11-23T05:41:38.605Z,0.00
2022-11-23T05:42:38.567Z,0.00
2022-11-23T05:43:38.626Z,0.00
2022-11-23T05:44:38.522Z,0.00
2022-11-23T05:45:38.536Z,0.00
2022-11-23T05:46:38.551Z,0.00
2022-11-23T05:47:38.538Z,0.00
2022-11-23T05:48:38.494Z,0.00
2022-11-23T05:49:38.520Z,0.00
2022-11-23T05:50:38.478Z,0.00
2022-11-23T05:51:38.467Z,0.00
2022-11-23T05:52:38.479Z,0.00
2022-11-23T05:53:38.434Z,0.00
2022-11-23T05:54:38.456Z,0.00
2022-11-23T05:55:38.488Z,0.00
2022-11-23T05:56:40.469Z,0.00
2022-11-23T05:57:38.398Z,0.00
2022-11-23T05:58:38.389Z,0.00
2022-11-23T05:59:38.376Z,0.00
2022-11-23T06:00:38.368Z,0.00
2022-11-23T06:01:38.414Z,0.00
2022-11-23T06:02:41.174Z,0.00
2022-11-23T06:03:38.379Z,0.00
2022-11-23T06:04:38.318Z,0.00
2022-11-23T06:05:38.311Z,0.00
2022-11-23T06:06:38.294Z,0.00
2022-11-23T06:07:38.365Z,0.00
2022-11-23T06:08:38.292Z,0.00
2022-11-23T06:09:38.251Z,4.00
2022-11-23T06:10:38.261Z,4.00
2022-11-23T06:11:38.224Z,0.00
2022-11-23T06:12:38.267Z,0.00
2022-11-23T06:13:38.218Z,4.00
2022-11-23T06:14:38.216Z,4.00
2022-11-23T06:15:38.227Z,4.00
2022-11-23T06:16:38.175Z,4.00
2022-11-23T06:17:38.181Z,4.00
2022-11-23T06:18:38.152Z,8.00
2022-11-23T06:19:38.132Z,8.00
2022-11-23T06:20:38.153Z,12.00
2022-11-23T06:21:38.100Z,12.00
2022-11-23T06:22:38.163Z,16.00
2022-11-23T06:23:38.115Z,16.00
2022-11-23T06:24:38.069Z,20.00
2022-11-23T06:25:38.073Z,24.00
2022-11-23T06:26:38.040Z,24.00
2022-11-23T06:27:38.033Z,28.00
2022-11-23T06:28:38.060Z,32.00
2022-11-23T06:29:38.035Z,36.00
2022-11-23T06:30:38.001Z,44.00
2022-11-23T06:31:37.982Z,48.00
2022-11-23T06:32:37.972Z,56.00
2022-11-23T06:33:38.012Z,60.00
2022-11-23T06:34:37.976Z,68.00
2022-11-23T06:35:37.944Z,72.00
2022-11-23T06:36:37.923Z,80.00
2022-11-23T06:37:37.933Z,92.00
2022-11-23T06:38:37.895Z,104.00
2022-11-23T06:39:37.951Z,128.00
2022-11-23T06:40:37.883Z,156.00
2022-11-23T06:41:37.887Z,192.00
2022-11-23T06:42:39.828Z,224.00
2022-11-23T06:43:37.863Z,256.00
2022-11-23T06:44:37.869Z,280.00
2022-11-23T06:45:37.865Z,300.00
2022-11-23T06:46:37.832Z,328.00
2022-11-23T06:47:37.816Z,352.00
2022-11-23T06:48:37.790Z,388.00
2022-11-23T06:49:37.785Z,424.00
2022-11-23T06:50:37.776Z,456.00
2022-11-23T06:51:37.819Z,484.00
2022-11-23T06:52:37.772Z,516.00
2022-11-23T06:53:37.728Z,552.00
2022-11-23T06:54:37.743Z,596.00
2022-11-23T06:55:37.707Z,628.00
2022-11-23T06:56:37.780Z,664.00
2022-11-23T06:57:37.727Z,696.00
2022-11-23T06:58:37.680Z,712.00
2022-11-23T06:59:40.685Z,736.00
2022-11-23T07:00:38.668Z,760.00
2022-11-23T07:01:37.695Z,784.00
2022-11-23T07:02:37.844Z,804.00
2022-11-23T07:03:37.683Z,824.00
2022-11-23T07:04:37.606Z,872.00
2022-11-23T07:05:37.603Z,936.00
2022-11-23T07:06:37.590Z,992.00
2022-11-23T07:07:37.630Z,1036.00
2022-11-23T07:08:37.559Z,1072.00
2022-11-23T07:09:37.598Z,1112.00
2022-11-23T07:10:37.544Z,1172.00
2022-11-23T07:11:37.532Z,1252.00
2022-11-23T07:12:37.501Z,1348.00
2022-11-23T07:13:37.530Z,1404.00
2022-11-23T07:14:37.543Z,1388.00
2022-11-23T07:15:37.488Z,1356.00
2022-11-23T07:16:37.482Z,1332.00
2022-11-23T07:17:37.451Z,1320.00
2022-11-23T07:18:37.474Z,1320.00
2022-11-23T07:19:37.465Z,1324.00
2022-11-23T07:20:37.451Z,1380.00
2022-11-23T07:21:37.415Z,1440.00
2022-11-23T07:22:37.392Z,1480.00
2022-11-23T07:23:37.411Z,1500.00
2022-11-23T07:24:41.487Z,1576.00
2022-11-23T07:25:38.405Z,1728.00
2022-11-23T07:26:37.381Z,1852.00
2022-11-23T07:27:37.366Z,1920.00
2022-11-23T07:28:37.325Z,1940.00
2022-11-23T07:29:37.381Z,1928.00
2022-11-23T07:30:37.356Z,1912.00
2022-11-23T07:31:37.302Z,1920.00
2022-11-23T07:32:37.286Z,1940.00
2022-11-23T07:33:37.327Z,2004.00
2022-11-23T07:34:37.253Z,2156.00
2022-11-23T07:35:37.259Z,2324.00
2022-11-23T07:36:37.254Z,2432.00
2022-11-23T07:37:37.302Z,2404.00
2022-11-23T07:38:37.229Z,2400.00
2022-11-23T07:39:56.402Z,2460.00
2022-11-23T07:40:38.184Z,2544.00
2022-11-23T07:41:37.187Z,2560.00
2022-11-23T07:42:44.199Z,2592.00
2022-11-23T07:43:38.429Z,2664.00
2022-11-23T07:44:37.188Z,2724.00
2022-11-23T07:45:37.149Z,2680.00
2022-11-23T07:46:37.146Z,2576.00
2022-11-23T07:47:37.273Z,2492.00
2022-11-23T07:48:38.138Z,2500.00
2022-11-23T07:49:37.101Z,2600.00
2022-11-23T07:50:37.067Z,2676.00
2022-11-23T07:51:38.641Z,2640.00
2022-11-23T07:52:37.063Z,2744.00
2022-11-23T07:53:37.067Z,2904.00
2022-11-23T07:54:37.028Z,2892.00
2022-11-23T07:55:37.055Z,2864.00
2022-11-23T07:56:37.052Z,2872.00
2022-11-23T07:57:37.012Z,2832.00
2022-11-23T07:58:37.060Z,2784.00
2022-11-23T07:59:38.010Z,2744.00
2022-11-23T08:00:37.013Z,2804.00
2022-11-23T08:01:36.952Z,3048.00
2022-11-23T08:02:37.005Z,3268.00
2022-11-23T08:03:36.955Z,3420.00
2022-11-23T08:04:36.937Z,3564.00
2022-11-23T08:05:36.933Z,3748.00
2022-11-23T08:06:36.918Z,3940.00
2022-11-23T08:07:36.904Z,4152.00
2022-11-23T08:08:36.925Z,4292.00
2022-11-23T08:09:36.880Z,4444.00
2022-11-23T08:10:43.487Z,4592.00
2022-11-23T08:11:37.833Z,4632.00
2022-11-23T08:12:36.843Z,4612.00
2022-11-23T08:13:36.846Z,4676.00
2022-11-23T08:14:36.782Z,4648.00
2022-11-23T08:15:36.773Z,4716.00
2022-11-23T08:16:36.836Z,4644.00
2022-11-23T08:17:36.798Z,4416.00
2022-11-23T08:18:36.780Z,4304.00
2022-11-23T08:19:36.770Z,4192.00
2022-11-23T08:20:36.891Z,4052.00
2022-11-23T08:21:36.736Z,3888.00
2022-11-23T08:22:36.743Z,3860.00
2022-11-23T08:23:36.696Z,3888.00
2022-11-23T08:24:36.716Z,3956.00
2022-11-23T08:25:36.708Z,3932.00
2022-11-23T08:26:36.653Z,3884.00
2022-11-23T08:27:36.643Z,3924.00
2022-11-23T08:28:36.653Z,3948.00
2022-11-23T08:29:36.624Z,3876.00
2022-11-23T08:30:36.663Z,3712.00
2022-11-23T08:31:36.602Z,3556.00
2022-11-23T08:32:36.617Z,3460.00
2022-11-23T08:33:38.362Z,3508.00
2022-11-23T08:34:36.563Z,3628.00
2022-11-23T08:35:36.582Z,3696.00
2022-11-23T08:36:36.593Z,3780.00
2022-11-23T08:37:36.561Z,3872.00
2022-11-23T08:38:36.550Z,3928.00
2022-11-23T08:39:36.496Z,4100.00
2022-11-23T08:40:36.491Z,4132.00
2022-11-23T08:41:36.507Z,4076.00
2022-11-23T08:42:36.533Z,3984.00
2022-11-23T08:43:37.038Z,3804.00
2022-11-23T08:44:36.480Z,3600.00
2022-11-23T08:45:36.500Z,3464.00
2022-11-23T08:46:36.412Z,3440.00
2022-11-23T08:47:36.411Z,3568.00
2022-11-23T08:48:36.427Z,3664.00
2022-11-23T08:49:36.450Z,3712.00
2022-11-23T08:50:36.402Z,3772.00
2022-11-23T08:51:36.358Z,3836.00
2022-11-23T08:52:36.375Z,3816.00
2022-11-23T08:53:36.451Z,3688.00
2022-11-23T08:54:36.481Z,3516.00
2022-11-23T08:55:36.385Z,3332.00
2022-11-23T08:56:36.320Z,3224.00
2022-11-23T08:57:36.306Z,3148.00
2022-11-23T08:58:36.312Z,3112.00
2022-11-23T08:59:36.261Z,3136.00
2022-11-23T09:00:36.262Z,3180.00
2022-11-23T09:01:36.342Z,3248.00
2022-11-23T09:02:36.639Z,3328.00
2022-11-23T09:03:36.245Z,3460.00
2022-11-23T09:04:36.371Z,3616.00
2022-11-23T09:05:36.221Z,3912.00
2022-11-23T09:06:36.241Z,4140.00
2022-11-23T09:07:36.295Z,4316.00
2022-11-23T09:08:36.251Z,4368.00
2022-11-23T09:09:37.206Z,4504.00
2022-11-23T09:10:36.162Z,4716.00
2022-11-23T09:11:36.179Z,4932.00
2022-11-23T09:12:36.157Z,5088.00
2022-11-23T09:13:36.154Z,5172.00
2022-11-23T09:14:36.122Z,5156.00
2022-11-23T09:15:36.119Z,5388.00
2022-11-23T09:16:36.096Z,5432.00
2022-11-23T09:17:36.087Z,5328.00
2022-11-23T09:18:36.063Z,5200.00
2022-11-23T09:19:36.065Z,4956.00
2022-11-23T09:20:36.079Z,4564.00
2022-11-23T09:21:36.028Z,4252.00
2022-11-23T09:22:36.029Z,4248.00
2022-11-23T09:23:36.040Z,4636.00
2022-11-23T09:24:36.419Z,5304.00
2022-11-23T09:25:35.980Z,5788.00
2022-11-23T09:26:36.007Z,6116.00
2022-11-23T09:27:35.962Z,6292.00
2022-11-23T09:28:38.085Z,6444.00
2022-11-23T09:29:36.931Z,6748.00
2022-11-23T09:30:35.947Z,7020.00
2022-11-23T09:31:35.962Z,7184.00
2022-11-23T09:32:35.920Z,7272.00
2022-11-23T09:33:35.907Z,7572.00
2022-11-23T09:34:35.927Z,8040.00
2022-11-23T09:35:40.732Z,8376.00
2022-11-23T09:36:36.852Z,8652.00
2022-11-23T09:37:35.828Z,8856.00
2022-11-23T09:38:55.586Z,9096.00
2022-11-23T09:39:36.830Z,9380.00
2022-11-23T09:40:35.819Z,9532.00
2022-11-23T09:41:35.780Z,9648.00
2022-11-23T09:42:35.823Z,9888.00
2022-11-23T09:43:35.765Z,10028.00
2022-11-23T09:44:35.768Z,10136.00
2022-11-23T09:45:35.748Z,10212.00
2022-11-23T09:46:37.201Z,10492.00
2022-11-23T09:47:35.733Z,10464.00
2022-11-23T09:48:35.739Z,10604.00
2022-11-23T09:49:35.719Z,10804.00
2022-11-23T09:50:35.690Z,11028.00
2022-11-23T09:51:35.661Z,11456.00
2022-11-23T09:52:35.782Z,12480.00
2022-11-23T09:53:35.694Z,12152.00
2022-11-23T09:54:35.874Z,13016.00
2022-11-23T09:55:35.752Z,11880.00
2022-11-23T09:56:36.217Z,12156.00
2022-11-23T09:57:35.623Z,12360.00
2022-11-23T09:58:35.613Z,12620.00
2022-11-23T09:59:35.844Z,12828.00
2022-11-23T10:00:35.596Z,12968.00
2022-11-23T10:01:36.508Z,13024.00
2022-11-23T10:02:35.557Z,13044.00
2022-11-23T10:03:35.533Z,13276.00
2022-11-23T10:04:35.583Z,13272.00
2022-11-23T10:05:35.768Z,13324.00
2022-11-23T10:06:35.519Z,13180.00
2022-11-23T10:07:36.553Z,13104.00
2022-11-23T10:08:35.476Z,13012.00
2022-11-23T10:09:35.489Z,12540.00
2022-11-23T10:10:35.506Z,12496.00
2022-11-23T10:11:35.449Z,12852.00
2022-11-23T10:12:39.912Z,12152.00
2022-11-23T10:13:35.733Z,11920.00
2022-11-23T10:14:36.401Z,11072.00
2022-11-23T10:15:36.221Z,10176.00
2022-11-23T10:16:35.473Z,9376.00
2022-11-23T10:17:35.378Z,8848.00
2022-11-23T10:18:36.126Z,8496.00
2022-11-23T10:19:35.881Z,8492.00
2022-11-23T10:20:35.392Z,9112.00
2022-11-23T10:21:35.746Z,10096.00
2022-11-23T10:22:35.431Z,10616.00
2022-11-23T10:23:37.063Z,11232.00
2022-11-23T10:24:35.632Z,12560.00
2022-11-23T10:25:39.152Z,13504.00
2022-11-23T10:26:35.352Z,12844.00
2022-11-23T10:27:35.472Z,12252.00
2022-11-23T10:28:35.825Z,12124.00
2022-11-23T10:29:35.503Z,12032.00
2022-11-23T10:30:35.340Z,12276.00
2022-11-23T10:31:35.242Z,12192.00
2022-11-23T10:32:35.623Z,11984.00
2022-11-23T10:33:35.436Z,11980.00
2022-11-23T10:34:35.312Z,11984.00
2022-11-23T10:35:35.414Z,11932.00
2022-11-23T10:36:35.330Z,11680.00
2022-11-23T10:37:35.521Z,11564.00
2022-11-23T10:38:35.184Z,11532.00
2022-11-23T10:39:35.385Z,11744.00
2022-11-23T10:40:35.135Z,11252.00
2022-11-23T10:41:35.174Z,11700.00
2022-11-23T10:42:35.126Z,12032.00
2022-11-23T10:43:35.104Z,11436.00
2022-11-23T10:44:35.405Z,11104.00
2022-11-23T10:45:35.079Z,10780.00
2022-11-23T10:46:35.070Z,10296.00
2022-11-23T10:47:35.036Z,10172.00
2022-11-23T10:48:35.016Z,10008.00
2022-11-23T10:49:35.073Z,9808.00
2022-11-23T10:50:35.026Z,9516.00
2022-11-23T10:51:35.017Z,9360.00
2022-11-23T10:52:35.221Z,9348.00
2022-11-23T10:53:35.443Z,9268.00
2022-11-23T10:54:35.323Z,9244.00
2022-11-23T10:55:35.068Z,9280.00
2022-11-23T10:56:35.290Z,9384.00
2022-11-23T10:57:38.437Z,9456.00
2022-11-23T10:58:35.686Z,9628.00
2022-11-23T10:59:35.499Z,10044.00
2022-11-23T11:00:34.926Z,10460.00
2022-11-23T11:01:34.928Z,11496.00
2022-11-23T11:02:34.945Z,13572.00
2022-11-23T11:03:34.839Z,11660.00
2022-11-23T11:04:35.040Z,11268.00
2022-11-23T11:06:35.867Z,11624.00
2022-11-23T11:07:34.863Z,9772.00
2022-11-23T11:08:35.025Z,9420.00
2022-11-23T11:09:35.067Z,9096.00
2022-11-23T11:10:34.813Z,9000.00
2022-11-23T11:11:34.825Z,9940.00
2022-11-23T11:12:34.943Z,8388.00
2022-11-23T11:13:36.236Z,8088.00
2022-11-23T11:14:43.089Z,7908.00
2022-11-23T11:15:42.479Z,7840.00
2022-11-23T11:16:35.755Z,8056.00
2022-11-23T11:17:34.747Z,8408.00
2022-11-23T11:18:34.919Z,8732.00
2022-11-23T11:19:34.847Z,8924.00
2022-11-23T11:20:35.678Z,8872.00
2022-11-23T11:21:35.237Z,8760.00
2022-11-23T11:22:35.636Z,8560.00
2022-11-23T11:23:34.688Z,8148.00
2022-11-23T11:24:34.975Z,8228.00
2022-11-23T11:25:34.636Z,8136.00
2022-11-23T11:26:34.599Z,7120.00
2022-11-23T11:27:34.613Z,7164.00
2022-11-23T11:28:34.566Z,7536.00
2022-11-23T11:29:39.217Z,10944.00
2022-11-23T11:30:35.796Z,8004.00
2022-11-23T11:31:34.554Z,8156.00
2022-11-23T11:32:34.630Z,8500.00
2022-11-23T11:33:36.429Z,8988.00
2022-11-23T11:34:34.778Z,10436.00
2022-11-23T11:35:34.619Z,15060.00
2022-11-23T11:36:34.978Z,28096.00
2022-11-23T11:37:34.971Z,16672.00
2022-11-23T11:38:35.246Z,15424.00
2022-11-23T11:39:34.526Z,13584.00
2022-11-23T11:40:34.461Z,15264.00
2022-11-23T11:41:35.605Z,11728.00
2022-11-23T11:42:35.905Z,10772.00
2022-11-23T11:43:39.497Z,9804.00
2022-11-23T11:44:35.573Z,9280.00
2022-11-23T11:45:34.442Z,9208.00
2022-11-23T11:46:34.435Z,9028.00
2022-11-23T11:47:34.479Z,8636.00
2022-11-23T11:48:34.372Z,8548.00
2022-11-23T11:49:34.348Z,8168.00
2022-11-23T11:50:34.558Z,8372.00
2022-11-23T11:51:35.264Z,8328.00
2022-11-23T11:52:34.627Z,8404.00
2022-11-23T11:53:34.670Z,8736.00
2022-11-23T11:54:35.334Z,8976.00
2022-11-23T11:55:34.310Z,8940.00
2022-11-23T11:56:34.265Z,9620.00
2022-11-23T11:57:34.276Z,10600.00
2022-11-23T11:58:36.744Z,9944.00
2022-11-23T11:59:34.435Z,10252.00
2022-11-23T12:00:34.243Z,13948.00
2022-11-23T12:01:34.207Z,12592.00
2022-11-23T12:02:34.259Z,11352.00
2022-11-23T12:03:34.251Z,10940.00
2022-11-23T12:04:34.410Z,12652.00
2022-11-23T12:05:34.156Z,15616.00
2022-11-23T12:06:34.169Z,11400.00
2022-11-23T12:07:34.241Z,10920.00
2022-11-23T12:08:34.180Z,11796.00
2022-11-23T12:09:34.336Z,11924.00
2022-11-23T12:10:34.117Z,20704.00
2022-11-23T12:11:34.141Z,19936.00
2022-11-23T12:12:34.076Z,13040.00
2022-11-23T12:13:34.091Z,9600.00
2022-11-23T12:14:34.595Z,9336.00
2022-11-23T12:15:48.969Z,9388.00
2022-11-23T12:16:35.032Z,8836.00
2022-11-23T12:17:34.052Z,8964.00
2022-11-23T12:18:34.079Z,8248.00
2022-11-23T12:19:34.470Z,8364.00
2022-11-23T12:20:33.994Z,8472.00
2022-11-23T12:21:34.027Z,7432.00
2022-11-23T12:22:33.970Z,7696.00
2022-11-23T12:23:34.005Z,8932.00
2022-11-23T12:24:33.941Z,9236.00
2022-11-23T12:25:33.965Z,11052.00
2022-11-23T12:26:33.927Z,8628.00
2022-11-23T12:27:33.939Z,8308.00
2022-11-23T12:28:33.896Z,12280.00
2022-11-23T12:29:34.160Z,8700.00
2022-11-23T12:30:33.929Z,8648.00
2022-11-23T12:31:33.873Z,16608.00
2022-11-23T12:32:33.847Z,9972.00
2022-11-23T12:33:33.834Z,9712.00
2022-11-23T12:34:34.132Z,11160.00
2022-11-23T12:35:33.836Z,8320.00
2022-11-23T12:36:33.840Z,13084.00
2022-11-23T12:37:33.809Z,20352.00
2022-11-23T12:38:33.776Z,19552.00
2022-11-23T12:39:33.851Z,11856.00
2022-11-23T12:40:33.776Z,13120.00